KMEM/MEM METAR and TAF weather

Enter ICAO airport designator
Station Type Date Time Source
KMEM METAR 2022/05/26 05:26 UTC NOAA

KMEM 260526Z 18011KT 7SM -RA BKN017 BKN038 BKN049 22/19 A2984 RMK AO2 LTG DSNT N AND S AND SW RAB12 P0002 T02170194


Station Type Date Time Source
KMEM Decoded METAR 2022/05/26 05:26 UTC NOAA

MEMPHIS INTERNATIONAL AIRPORT , TN, United States (KMEM) 35-02N 089-59W 86M
May 26, 2022 - 01:26 AM EDT / 2022.05.26 0526 UTC
Wind: from the S (180 degrees) at 13 MPH (11 KT):0
Visibility: 7 mile(s):0
Sky conditions: mostly cloudy
Weather: light rain; Lightning observed
Precipitation last hour: 0.02 inches
Temperature: 71.1 F (21.7 C)
Dew Point: 66.9 F (19.4 C)
Relative Humidity: 86%
Pressure (altimeter): 29.84 in. Hg (1010 hPa)
ob: KMEM 260526Z 18011KT 7SM -RA BKN017 BKN038 BKN049 22/19 A2984 RMK AO2 LTG DSNT N AND S AND SW RAB12 P0002 T02170194
cycle: 5

Station Type Date Time Source
KMEM TAF 2022/05/26 06:22 UTC NOAA

TAF KMEM 260520Z 2606/2712 18011KT P6SM -SHRA VCTS SCT015 BKN020CB OVC040
FM260900 20012KT P6SM SCT020 OVC040
FM261200 23012G18KT P6SM SCT030 BKN050
FM261700 23013G23KT P6SM SCT035 BKN050
FM270100 25010KT P6SM BKN060

Example: see airport list